TNCA/AUA METAR and TAF weather

Enter ICAO airport designator
Station Type Date Time Source
TNCA METAR 2022/07/01 01:00 UTC NOAA

TNCA 010100Z 08020KT 9999 FEW018 27/24 Q1012 NOSIG


Station Type Date Time Source
TNCA Decoded METAR 2022/07/01 01:00 UTC NOAA

Queen Beatrix Airport, Aruba (TNCA) 12-30N 070-01W 33M
Jun 30, 2022 - 09:00 PM EDT / 2022.07.01 0100 UTC
Wind: from the E (080 degrees) at 23 MPH (20 KT):0
Visibility: greater than 7 mile(s):0
Sky conditions: mostly clear
Temperature: 80 F (27 C)
Dew Point: 75 F (24 C)
Relative Humidity: 83%
Pressure (altimeter): 29.88 in. Hg (1012 hPa)
ob: TNCA 010100Z 08020KT 9999 FEW018 27/24 Q1012 NOSIG
cycle: 1

Station Type Date Time Source
TNCA TAF 2022/07/01 00:43 UTC NOAA

TAF TNCA 302302Z 0100/0124 09020KT 9999 SCT018 PROB30
TEMPO 0104/0116 08025KT 4000 SHRA TS FEW012CB BKN015

Example: see airport list